PWSweather.com
Personal Weather Stations
Station Observations
133525
West Seneca Gardenville, West Seneca, NY 14224

West Seneca GardenvilleWest Seneca, NY 14224

Lat: 42.850058, Lon: -78.799754

Elevation: 603

Station Type: Davis Vantage Vue pro2

http://westsenecaweather.com/

High Low Average
Temperature 61.0°F16.1°F 41.6°F5.3°F 53.1°F11.7°F
Dew Point 54.5°F12.5°F 40.0°F4.4°F 49.0°F9.4°F
Winds 10.4 mph SW16.7 mph SW Calm Calm 4.4 mph 7.1 mph
Wind Gusts 19.6 mph31.5 mph -- 7.7 mph12.4 mph
Humidity 96% 78% 86%
Pressure 29.86 in1011.20 in 29.65 in1004.10 in -
Precipitation 0.00 in0.00 in - -
Hour Temp Dew Point Humidity Winds Wind Gusts Pressure Precip Precip Rate Daily Precip Total
12:00 AM 57.4°F14.1°C 52.6°F11.4°C 84% 3.5 mph S5.6 kmh S 5.8 mph9.3 kmh 29.73 in1006.8 mb - 0.00 in0.0 mm 0.00 in0.0 mm
12:10 AM 57.4°F14.1°C 52.6°F11.4°C 84% 3.5 mph S5.6 kmh S 4.6 mph7.4 kmh 29.73 in1006.8 mb - 0.00 in0.0 mm 0.00 in0.0 mm
12:20 AM 57.4°F14.1°C 52.6°F11.4°C 84% 2.3 mph S3.7 kmh S 3.5 mph5.6 kmh 29.73 in1006.8 mb - 0.00 in0.0 mm 0.00 in0.0 mm
12:30 AM 57.4°F14.1°C 52.6°F11.4°C 84% 3.5 mph SSE5.6 kmh SSE 3.5 mph5.6 kmh 29.72 in1006.4 mb - 0.00 in0.0 mm 0.00 in0.0 mm
12:40 AM 57.1°F13.9°C 52.3°F11.3°C 84% 3.5 mph S5.6 kmh S 5.8 mph9.3 kmh 29.72 in1006.4 mb - 0.00 in0.0 mm 0.00 in0.0 mm
12:50 AM 57.1°F13.9°C 52.3°F11.3°C 84% 3.5 mph S5.6 kmh S 6.9 mph11.1 kmh 29.71 in1006.1 mb - 0.00 in0.0 mm 0.00 in0.0 mm
01:00 AM 56.9°F13.8°C 52.1°F11.2°C 84% 3.5 mph S5.6 kmh S 3.5 mph5.6 kmh 29.71 in1006.1 mb - 0.00 in0.0 mm 0.00 in0.0 mm
01:10 AM 56.7°F13.7°C 51.9°F11.1°C 84% 3.5 mph SSE5.6 kmh SSE 4.6 mph7.4 kmh 29.71 in1006.1 mb - 0.00 in0.0 mm 0.00 in0.0 mm
01:20 AM 56.6°F13.7°C 51.8°F11.0°C 84% 3.5 mph S5.6 kmh S 4.6 mph7.4 kmh 29.71 in1006.1 mb - 0.00 in0.0 mm 0.00 in0.0 mm
01:30 AM 56.6°F13.7°C 52.1°F11.2°C 85% 4.6 mph SSE7.4 kmh SSE 6.9 mph11.1 kmh 29.70 in1005.8 mb - 0.00 in0.0 mm 0.00 in0.0 mm
01:40 AM 56.6°F13.7°C 51.8°F11.0°C 84% 5.8 mph S9.3 kmh S 8.1 mph13.0 kmh 29.70 in1005.8 mb - 0.00 in0.0 mm 0.00 in0.0 mm
01:50 AM 56.8°F13.8°C 52.0°F11.1°C 84% 2.3 mph S3.7 kmh S 6.9 mph11.1 kmh 29.70 in1005.8 mb - 0.00 in0.0 mm 0.00 in0.0 mm
02:00 AM 56.8°F13.8°C 52.0°F11.1°C 84% 5.8 mph S9.3 kmh S 9.2 mph14.8 kmh 29.70 in1005.8 mb - 0.00 in0.0 mm 0.00 in0.0 mm
02:10 AM 57.3°F14.1°C 52.1°F11.2°C 83% 4.6 mph S7.4 kmh S 6.9 mph11.1 kmh 29.70 in1005.8 mb - 0.00 in0.0 mm 0.00 in0.0 mm
02:20 AM 57.5°F14.2°C 52.4°F11.3°C 83% 4.6 mph S7.4 kmh S 6.9 mph11.1 kmh 29.69 in1005.4 mb - 0.00 in0.0 mm 0.00 in0.0 mm
02:30 AM 57.6°F14.2°C 52.1°F11.2°C 82% 5.8 mph S9.3 kmh S 8.1 mph13.0 kmh 29.69 in1005.4 mb - 0.00 in0.0 mm 0.00 in0.0 mm
02:40 AM 57.9°F14.4°C 52.1°F11.2°C 81% 6.9 mph S11.1 kmh S 12.7 mph20.4 kmh 29.69 in1005.4 mb - 0.00 in0.0 mm 0.00 in0.0 mm
02:50 AM 58.2°F14.6°C 52.0°F11.1°C 80% 5.8 mph S9.3 kmh S 11.5 mph18.5 kmh 29.69 in1005.4 mb - 0.00 in0.0 mm 0.00 in0.0 mm
03:00 AM 58.2°F14.6°C 52.1°F11.2°C 80% 3.5 mph S5.6 kmh S 5.8 mph9.3 kmh 29.68 in1005.1 mb - 0.00 in0.0 mm 0.00 in0.0 mm
03:10 AM 58.4°F14.7°C 51.9°F11.1°C 79% 5.8 mph S9.3 kmh S 11.5 mph18.5 kmh 29.69 in1005.4 mb - 0.00 in0.0 mm 0.00 in0.0 mm
03:20 AM 58.5°F14.7°C 51.7°F10.9°C 78% 4.6 mph S7.4 kmh S 6.9 mph11.1 kmh 29.69 in1005.4 mb - 0.00 in0.0 mm 0.00 in0.0 mm
03:30 AM 58.5°F14.7°C 51.7°F10.9°C 78% 3.5 mph SSW5.6 kmh SSW 6.9 mph11.1 kmh 29.68 in1005.1 mb - 0.00 in0.0 mm 0.00 in0.0 mm
03:40 AM 58.5°F14.7°C 51.7°F10.9°C 78% 4.6 mph S7.4 kmh S 8.1 mph13.0 kmh 29.68 in1005.1 mb - 0.00 in0.0 mm 0.00 in0.0 mm
03:50 AM 58.5°F14.7°C 51.7°F10.9°C 78% 8.1 mph SSW13.0 kmh SSW 10.4 mph16.7 kmh 29.68 in1005.1 mb - 0.00 in0.0 mm 0.00 in0.0 mm
04:00 AM 58.2°F14.6°C 51.7°F10.9°C 79% 4.6 mph S7.4 kmh S 3.5 mph5.6 kmh 29.68 in1005.1 mb - 0.00 in0.0 mm 0.00 in0.0 mm
04:10 AM 57.8°F14.3°C 51.7°F10.9°C 80% 5.8 mph S9.3 kmh S 11.5 mph18.5 kmh 29.68 in1005.1 mb - 0.00 in0.0 mm 0.00 in0.0 mm
04:20 AM 57.7°F14.3°C 51.9°F11.1°C 81% 5.8 mph SSE9.3 kmh SSE 11.5 mph18.5 kmh 29.68 in1005.1 mb - 0.00 in0.0 mm 0.00 in0.0 mm
04:30 AM 57.5°F14.2°C 51.8°F11.0°C 81% 4.6 mph S7.4 kmh S 10.4 mph16.7 kmh 29.68 in1005.1 mb - 0.00 in0.0 mm 0.00 in0.0 mm
04:40 AM 57.5°F14.2°C 51.7°F10.9°C 81% 3.5 mph SSE5.6 kmh SSE 8.1 mph13.0 kmh 29.68 in1005.1 mb - 0.00 in0.0 mm 0.00 in0.0 mm
04:50 AM 57.3°F14.1°C 51.9°F11.1°C 82% 5.8 mph SSE9.3 kmh SSE 8.1 mph13.0 kmh 29.67 in1004.7 mb - 0.00 in0.0 mm 0.00 in0.0 mm
05:00 AM 57.4°F14.1°C 51.7°F10.9°C 81% 5.8 mph S9.3 kmh S 11.5 mph18.5 kmh 29.67 in1004.7 mb - 0.00 in0.0 mm 0.00 in0.0 mm
05:10 AM 57.3°F14.1°C 51.5°F10.8°C 81% 4.6 mph S7.4 kmh S 8.1 mph13.0 kmh 29.67 in1004.7 mb - 0.00 in0.0 mm 0.00 in0.0 mm
05:20 AM 57.2°F14.0°C 51.8°F11.0°C 82% 5.8 mph S9.3 kmh S 6.9 mph11.1 kmh 29.67 in1004.7 mb - 0.00 in0.0 mm 0.00 in0.0 mm
05:40 AM 57.3°F14.1°C 51.5°F10.8°C 81% 6.9 mph S11.1 kmh S 11.5 mph18.5 kmh 29.66 in1004.4 mb - 0.00 in0.0 mm 0.00 in0.0 mm
05:50 AM 57.1°F13.9°C 51.7°F10.9°C 82% 6.9 mph S11.1 kmh S 11.5 mph18.5 kmh 29.66 in1004.4 mb - 0.00 in0.0 mm 0.00 in0.0 mm
06:00 AM 56.9°F13.8°C 51.5°F10.8°C 82% 5.8 mph S9.3 kmh S 9.2 mph14.8 kmh 29.66 in1004.4 mb - 0.00 in0.0 mm 0.00 in0.0 mm
06:10 AM 56.9°F13.8°C 51.5°F10.8°C 82% 5.8 mph SSE9.3 kmh SSE 10.4 mph16.7 kmh 29.65 in1004.1 mb - 0.00 in0.0 mm 0.00 in0.0 mm
06:20 AM 57.1°F13.9°C 51.7°F10.9°C 82% 8.1 mph SSE13.0 kmh SSE 18.4 mph29.6 kmh 29.65 in1004.1 mb - 0.00 in0.0 mm 0.00 in0.0 mm
06:30 AM 57.2°F14.0°C 51.8°F11.0°C 82% 6.9 mph S11.1 kmh S 9.2 mph14.8 kmh 29.65 in1004.1 mb - 0.00 in0.0 mm 0.00 in0.0 mm
06:40 AM 57.3°F14.1°C 51.9°F11.1°C 82% 8.1 mph SSE13.0 kmh SSE 13.8 mph22.2 kmh 29.65 in1004.1 mb - 0.00 in0.0 mm 0.00 in0.0 mm
06:50 AM 57.4°F14.1°C 51.9°F11.1°C 82% 8.1 mph S13.0 kmh S 12.7 mph20.4 kmh 29.66 in1004.4 mb - 0.00 in0.0 mm 0.00 in0.0 mm
07:00 AM 57.4°F14.1°C 52.3°F11.3°C 83% 5.8 mph S9.3 kmh S 6.9 mph11.1 kmh 29.66 in1004.4 mb - 0.00 in0.0 mm 0.00 in0.0 mm
07:10 AM 57.5°F14.2°C 52.4°F11.3°C 83% 9.2 mph S14.8 kmh S 13.8 mph22.2 kmh 29.66 in1004.4 mb - 0.00 in0.0 mm 0.00 in0.0 mm
07:20 AM 57.6°F14.2°C 52.5°F11.4°C 83% 4.6 mph S7.4 kmh S 6.9 mph11.1 kmh 29.66 in1004.4 mb - 0.00 in0.0 mm 0.00 in0.0 mm
07:30 AM 57.7°F14.3°C 52.6°F11.4°C 83% 6.9 mph S11.1 kmh S 12.7 mph20.4 kmh 29.65 in1004.1 mb - 0.00 in0.0 mm 0.00 in0.0 mm
07:40 AM 58.0°F14.4°C 52.5°F11.4°C 82% 5.8 mph S9.3 kmh S 11.5 mph18.5 kmh 29.66 in1004.4 mb - 0.00 in0.0 mm 0.00 in0.0 mm
07:50 AM 58.1°F14.5°C 52.6°F11.4°C 82% 5.8 mph S9.3 kmh S 8.1 mph13.0 kmh 29.66 in1004.4 mb - 0.00 in0.0 mm 0.00 in0.0 mm
08:00 AM 58.3°F14.6°C 52.8°F11.6°C 82% 6.9 mph S11.1 kmh S 12.7 mph20.4 kmh 29.66 in1004.4 mb - 0.00 in0.0 mm 0.00 in0.0 mm
08:10 AM 58.6°F14.8°C 53.1°F11.7°C 82% 6.9 mph S11.1 kmh S 10.4 mph16.7 kmh 29.66 in1004.4 mb - 0.00 in0.0 mm 0.00 in0.0 mm
08:20 AM 58.8°F14.9°C 53.3°F11.8°C 82% 8.1 mph S13.0 kmh S 11.5 mph18.5 kmh 29.66 in1004.4 mb - 0.00 in0.0 mm 0.00 in0.0 mm
08:30 AM 59.1°F15.1°C 53.3°F11.8°C 81% 8.1 mph S13.0 kmh S 11.5 mph18.5 kmh 29.66 in1004.4 mb - 0.00 in0.0 mm 0.00 in0.0 mm
08:40 AM 59.3°F15.2°C 53.5°F11.9°C 81% 6.9 mph SSW11.1 kmh SSW 17.3 mph27.8 kmh 29.66 in1004.4 mb - 0.00 in0.0 mm 0.00 in0.0 mm
08:50 AM 59.7°F15.4°C 53.9°F12.2°C 81% 6.9 mph SSW11.1 kmh SSW 13.8 mph22.2 kmh 29.66 in1004.4 mb - 0.00 in0.0 mm 0.00 in0.0 mm
09:00 AM 60.1°F15.6°C 54.2°F12.3°C 81% 9.2 mph S14.8 kmh S 12.7 mph20.4 kmh 29.66 in1004.4 mb - 0.00 in0.0 mm 0.00 in0.0 mm
09:10 AM 60.2°F15.7°C 54.0°F12.2°C 80% 4.6 mph S7.4 kmh S 10.4 mph16.7 kmh 29.66 in1004.4 mb - 0.00 in0.0 mm 0.00 in0.0 mm
09:20 AM 60.5°F15.8°C 54.3°F12.4°C 80% 5.8 mph S9.3 kmh S 12.7 mph20.4 kmh 29.66 in1004.4 mb - 0.00 in0.0 mm 0.00 in0.0 mm
09:30 AM 60.9°F16.1°C 54.3°F12.4°C 79% 6.9 mph SW11.1 kmh SW 10.4 mph16.7 kmh 29.66 in1004.4 mb - 0.00 in0.0 mm 0.00 in0.0 mm
09:40 AM 60.9°F16.1°C 54.3°F12.4°C 79% 6.9 mph S11.1 kmh S 12.7 mph20.4 kmh 29.66 in1004.4 mb - 0.00 in0.0 mm 0.00 in0.0 mm
09:50 AM 60.9°F16.1°C 54.3°F12.4°C 79% 8.1 mph SSW13.0 kmh SSW 11.5 mph18.5 kmh 29.66 in1004.4 mb - 0.00 in0.0 mm 0.00 in0.0 mm
10:00 AM 60.9°F16.1°C 54.3°F12.4°C 79% 8.1 mph S13.0 kmh S 18.4 mph29.6 kmh 29.65 in1004.1 mb - 0.00 in0.0 mm 0.00 in0.0 mm
10:10 AM 61.0°F16.1°C 54.4°F12.4°C 79% 8.1 mph SSW13.0 kmh SSW 11.5 mph18.5 kmh 29.65 in1004.1 mb - 0.00 in0.0 mm 0.00 in0.0 mm
10:20 AM 60.9°F16.1°C 54.4°F12.4°C 79% 9.2 mph SSW14.8 kmh SSW 19.6 mph31.5 kmh 29.65 in1004.1 mb - 0.00 in0.0 mm 0.00 in0.0 mm
10:30 AM 60.9°F16.1°C 54.3°F12.4°C 79% 4.6 mph SW7.4 kmh SW 5.8 mph9.3 kmh 29.66 in1004.4 mb - 0.00 in0.0 mm 0.00 in0.0 mm
10:40 AM 60.7°F15.9°C 54.5°F12.5°C 80% 6.9 mph WSW11.1 kmh WSW 9.2 mph14.8 kmh 29.66 in1004.4 mb - 0.00 in0.0 mm 0.00 in0.0 mm
10:50 AM 60.4°F15.8°C 54.2°F12.3°C 80% 10.4 mph SW16.7 kmh SW 17.3 mph27.8 kmh 29.65 in1004.1 mb - 0.00 in0.0 mm 0.00 in0.0 mm
11:00 AM 60.3°F15.7°C 54.1°F12.3°C 80% 6.9 mph SSW11.1 kmh SSW 11.5 mph18.5 kmh 29.65 in1004.1 mb - 0.00 in0.0 mm 0.00 in0.0 mm
11:10 AM 60.3°F15.7°C 54.1°F12.3°C 80% 6.9 mph S11.1 kmh S 16.1 mph25.9 kmh 29.65 in1004.1 mb - 0.00 in0.0 mm 0.00 in0.0 mm
11:20 AM 60.1°F15.6°C 53.9°F12.2°C 80% 6.9 mph SSW11.1 kmh SSW 13.8 mph22.2 kmh 29.66 in1004.4 mb - 0.00 in0.0 mm 0.00 in0.0 mm
11:30 AM 60.1°F15.6°C 54.3°F12.4°C 81% 4.6 mph SSW7.4 kmh SSW 13.8 mph22.2 kmh 29.66 in1004.4 mb - 0.00 in0.0 mm 0.00 in0.0 mm
11:40 AM 60.0°F15.6°C 53.8°F12.1°C 80% 5.8 mph SW9.3 kmh SW 11.5 mph18.5 kmh 29.66 in1004.4 mb - 0.00 in0.0 mm 0.00 in0.0 mm
11:50 AM 57.4°F14.1°C 51.0°F10.6°C 79% 9.2 mph WSW14.8 kmh WSW 13.8 mph22.2 kmh 29.67 in1004.7 mb - 0.00 in0.0 mm 0.00 in0.0 mm
12:00 PM 54.3°F12.4°C 50.2°F10.1°C 86% 8.1 mph SW13.0 kmh SW 12.7 mph20.4 kmh 29.67 in1004.7 mb - 0.00 in0.0 mm 0.00 in0.0 mm
12:10 PM 54.4°F12.4°C 50.9°F10.5°C 88% 6.9 mph WSW11.1 kmh WSW 9.2 mph14.8 kmh 29.67 in1004.7 mb - 0.00 in0.0 mm 0.00 in0.0 mm
12:20 PM 54.2°F12.3°C 50.7°F10.4°C 88% 9.2 mph WSW14.8 kmh WSW 16.1 mph25.9 kmh 29.68 in1005.1 mb - 0.00 in0.0 mm 0.00 in0.0 mm
12:30 PM 53.6°F12.0°C 49.8°F9.9°C 87% 6.9 mph WSW11.1 kmh WSW 11.5 mph18.5 kmh 29.68 in1005.1 mb - 0.00 in0.0 mm 0.00 in0.0 mm
12:40 PM 52.4°F11.3°C 49.0°F9.4°C 88% 9.2 mph WSW14.8 kmh WSW 15.0 mph24.1 kmh 29.68 in1005.1 mb - 0.00 in0.0 mm 0.00 in0.0 mm
12:50 PM 51.5°F10.8°C 48.4°F9.1°C 89% 4.6 mph WSW7.4 kmh WSW 12.7 mph20.4 kmh 29.68 in1005.1 mb - 0.00 in0.0 mm 0.00 in0.0 mm
01:00 PM 50.7°F10.4°C 47.9°F8.8°C 90% 8.1 mph WSW13.0 kmh WSW 13.8 mph22.2 kmh 29.69 in1005.4 mb - 0.00 in0.0 mm 0.00 in0.0 mm
01:10 PM 50.3°F10.2°C 47.5°F8.6°C 90% 6.9 mph SW11.1 kmh SW 11.5 mph18.5 kmh 29.69 in1005.4 mb - 0.00 in0.0 mm 0.00 in0.0 mm
01:20 PM 50.0°F10.0°C 47.2°F8.4°C 90% 3.5 mph SW5.6 kmh SW 4.6 mph7.4 kmh 29.69 in1005.4 mb - 0.00 in0.0 mm 0.00 in0.0 mm
01:30 PM 50.2°F10.1°C 47.3°F8.5°C 90% 4.6 mph WSW7.4 kmh WSW 11.5 mph18.5 kmh 29.69 in1005.4 mb - 0.00 in0.0 mm 0.00 in0.0 mm
01:40 PM 49.9°F9.9°C 46.8°F8.2°C 89% 4.6 mph S7.4 kmh S 9.2 mph14.8 kmh 29.69 in1005.4 mb - 0.00 in0.0 mm 0.00 in0.0 mm
01:50 PM 49.1°F9.5°C 46.3°F7.9°C 90% 5.8 mph WSW9.3 kmh WSW 11.5 mph18.5 kmh 29.70 in1005.8 mb - 0.00 in0.0 mm 0.00 in0.0 mm
02:00 PM 49.0°F9.4°C 46.5°F8.1°C 91% 4.6 mph SW7.4 kmh SW 6.9 mph11.1 kmh 29.70 in1005.8 mb - 0.00 in0.0 mm 0.00 in0.0 mm
02:10 PM 49.3°F9.6°C 46.5°F8.1°C 90% 5.8 mph SW9.3 kmh SW 5.8 mph9.3 kmh 29.70 in1005.8 mb - 0.00 in0.0 mm 0.00 in0.0 mm
02:20 PM 48.8°F9.3°C 46.0°F7.8°C 90% 4.6 mph S7.4 kmh S 6.9 mph11.1 kmh 29.71 in1006.1 mb - 0.00 in0.0 mm 0.00 in0.0 mm
02:30 PM 48.5°F9.2°C 45.7°F7.6°C 90% 5.8 mph SW9.3 kmh SW 10.4 mph16.7 kmh 29.72 in1006.4 mb - 0.00 in0.0 mm 0.00 in0.0 mm
02:40 PM 48.8°F9.3°C 46.3°F7.9°C 91% 4.6 mph SSW7.4 kmh SSW 8.1 mph13.0 kmh 29.72 in1006.4 mb - 0.00 in0.0 mm 0.00 in0.0 mm
02:50 PM 49.2°F9.6°C 46.7°F8.2°C 91% 4.6 mph SW7.4 kmh SW 12.7 mph20.4 kmh 29.72 in1006.4 mb - 0.00 in0.0 mm 0.00 in0.0 mm
03:00 PM 49.9°F9.9°C 47.4°F8.6°C 91% 4.6 mph SW7.4 kmh SW 6.9 mph11.1 kmh 29.73 in1006.8 mb - 0.00 in0.0 mm 0.00 in0.0 mm
03:10 PM 50.5°F10.3°C 47.7°F8.7°C 90% 5.8 mph WSW9.3 kmh WSW 10.4 mph16.7 kmh 29.73 in1006.8 mb - 0.00 in0.0 mm 0.00 in0.0 mm
03:20 PM 51.0°F10.6°C 47.9°F8.8°C 89% 2.3 mph SW3.7 kmh SW 10.4 mph16.7 kmh 29.73 in1006.8 mb - 0.00 in0.0 mm 0.00 in0.0 mm
03:30 PM 51.0°F10.6°C 47.9°F8.8°C 89% 5.8 mph SW9.3 kmh SW 13.8 mph22.2 kmh 29.74 in1007.1 mb - 0.00 in0.0 mm 0.00 in0.0 mm
03:40 PM 50.9°F10.5°C 47.8°F8.8°C 89% 3.5 mph SW5.6 kmh SW 8.1 mph13.0 kmh 29.74 in1007.1 mb - 0.00 in0.0 mm 0.00 in0.0 mm
03:50 PM 51.1°F10.6°C 48.0°F8.9°C 89% 2.3 mph WSW3.7 kmh WSW 11.5 mph18.5 kmh 29.74 in1007.1 mb - 0.00 in0.0 mm 0.00 in0.0 mm
04:00 PM 51.1°F10.6°C 47.6°F8.7°C 88% 4.6 mph SSW7.4 kmh SSW 10.4 mph16.7 kmh 29.74 in1007.1 mb - 0.00 in0.0 mm 0.00 in0.0 mm
04:10 PM 51.3°F10.7°C 47.9°F8.8°C 88% 5.8 mph SW9.3 kmh SW 10.4 mph16.7 kmh 29.74 in1007.1 mb - 0.00 in0.0 mm 0.00 in0.0 mm
04:20 PM 51.4°F10.8°C 48.0°F8.9°C 88% 3.5 mph S5.6 kmh S 5.8 mph9.3 kmh 29.74 in1007.1 mb - 0.00 in0.0 mm 0.00 in0.0 mm
04:30 PM 51.5°F10.8°C 48.1°F8.9°C 88% 6.9 mph SW11.1 kmh SW 12.7 mph20.4 kmh 29.75 in1007.5 mb - 0.00 in0.0 mm 0.00 in0.0 mm
04:40 PM 51.7°F10.9°C 48.3°F9.1°C 88% 3.5 mph SW5.6 kmh SW 11.5 mph18.5 kmh 29.75 in1007.5 mb - 0.00 in0.0 mm 0.00 in0.0 mm
04:50 PM 51.6°F10.9°C 48.2°F9.0°C 88% 2.3 mph SSW3.7 kmh SSW 6.9 mph11.1 kmh 29.75 in1007.5 mb - 0.00 in0.0 mm 0.00 in0.0 mm
05:00 PM 51.5°F10.8°C 48.0°F8.9°C 88% 5.8 mph SW9.3 kmh SW 8.1 mph13.0 kmh 29.75 in1007.5 mb - 0.00 in0.0 mm 0.00 in0.0 mm
05:10 PM 51.4°F10.8°C 48.0°F8.9°C 88% 3.5 mph SW5.6 kmh SW 4.6 mph7.4 kmh 29.76 in1007.8 mb - 0.00 in0.0 mm 0.00 in0.0 mm
05:20 PM 51.3°F10.7°C 47.9°F8.8°C 88% 2.3 mph SW3.7 kmh SW 5.8 mph9.3 kmh 29.76 in1007.8 mb - 0.00 in0.0 mm 0.00 in0.0 mm
05:30 PM 51.2°F10.7°C 48.1°F8.9°C 89% 3.5 mph SW5.6 kmh SW 8.1 mph13.0 kmh 29.77 in1008.1 mb - 0.00 in0.0 mm 0.00 in0.0 mm
05:40 PM 50.8°F10.4°C 47.7°F8.7°C 89% 2.3 mph SW3.7 kmh SW 4.6 mph7.4 kmh 29.78 in1008.5 mb - 0.00 in0.0 mm 0.00 in0.0 mm
05:50 PM 50.4°F10.2°C 47.3°F8.5°C 89% 3.5 mph SSW5.6 kmh SSW 5.8 mph9.3 kmh 29.79 in1008.8 mb - 0.00 in0.0 mm 0.00 in0.0 mm
06:00 PM 50.0°F10.0°C 47.2°F8.4°C 90% 3.5 mph WSW5.6 kmh WSW 4.6 mph7.4 kmh 29.79 in1008.8 mb - 0.00 in0.0 mm 0.00 in0.0 mm
06:10 PM 49.4°F9.7°C 46.6°F8.1°C 90% 3.5 mph NW5.6 kmh NW 4.6 mph7.4 kmh 29.81 in1009.5 mb - 0.00 in0.0 mm 0.00 in0.0 mm
06:20 PM 48.2°F9.0°C 45.7°F7.6°C 91% 4.6 mph S7.4 kmh S 5.8 mph9.3 kmh 29.81 in1009.5 mb - 0.00 in0.0 mm 0.00 in0.0 mm
06:30 PM 48.0°F8.9°C 45.8°F7.7°C 92% 3.5 mph WSW5.6 kmh WSW 4.6 mph7.4 kmh 29.82 in1009.8 mb - 0.00 in0.0 mm 0.00 in0.0 mm
06:40 PM 48.0°F8.9°C 45.8°F7.7°C 92% Calm Calm 3.5 mph5.6 kmh 29.82 in1009.8 mb - 0.00 in0.0 mm 0.00 in0.0 mm
06:50 PM 47.8°F8.8°C 45.6°F7.6°C 92% 1.2 mph WSW1.9 kmh WSW 2.3 mph3.7 kmh 29.82 in1009.8 mb - 0.00 in0.0 mm 0.00 in0.0 mm
07:00 PM 47.8°F8.8°C 45.6°F7.6°C 92% Calm Calm 2.3 mph3.7 kmh 29.83 in1010.2 mb - 0.00 in0.0 mm 0.00 in0.0 mm
07:10 PM 47.7°F8.7°C 45.5°F7.5°C 92% 1.2 mph S1.9 kmh S 1.2 mph1.9 kmh 29.83 in1010.2 mb - 0.00 in0.0 mm 0.00 in0.0 mm
07:20 PM 47.7°F8.7°C 45.5°F7.5°C 92% Calm Calm -- 29.83 in1010.2 mb - 0.00 in0.0 mm 0.00 in0.0 mm
07:30 PM 47.6°F8.7°C 45.4°F7.4°C 92% Calm Calm -- 29.84 in1010.5 mb - 0.00 in0.0 mm 0.00 in0.0 mm
07:40 PM 47.4°F8.6°C 45.2°F7.3°C 92% Calm Calm -- 29.83 in1010.2 mb - 0.00 in0.0 mm 0.00 in0.0 mm
07:50 PM 47.2°F8.4°C 45.0°F7.2°C 92% Calm Calm -- 29.83 in1010.2 mb - 0.00 in0.0 mm 0.00 in0.0 mm
08:00 PM 46.8°F8.2°C 44.6°F7.0°C 92% Calm Calm -- 29.83 in1010.2 mb - 0.00 in0.0 mm 0.00 in0.0 mm
08:10 PM 46.4°F8.0°C 44.2°F6.8°C 92% Calm Calm -- 29.83 in1010.2 mb - 0.00 in0.0 mm 0.00 in0.0 mm
08:20 PM 46.1°F7.8°C 44.2°F6.8°C 93% Calm Calm -- 29.84 in1010.5 mb - 0.00 in0.0 mm 0.00 in0.0 mm
08:30 PM 45.6°F7.6°C 43.4°F6.3°C 92% Calm Calm -- 29.84 in1010.5 mb - 0.00 in0.0 mm 0.00 in0.0 mm
08:40 PM 45.3°F7.4°C 43.4°F6.3°C 93% Calm Calm -- 29.84 in1010.5 mb - 0.00 in0.0 mm 0.00 in0.0 mm
08:50 PM 44.6°F7.0°C 42.7°F5.9°C 93% Calm Calm -- 29.85 in1010.8 mb - 0.00 in0.0 mm 0.00 in0.0 mm
09:00 PM 44.2°F6.8°C 42.6°F5.9°C 94% Calm Calm -- 29.84 in1010.5 mb - 0.00 in0.0 mm 0.00 in0.0 mm
09:10 PM 43.8°F6.6°C 42.2°F5.7°C 94% Calm Calm 1.2 mph1.9 kmh 29.85 in1010.8 mb - 0.00 in0.0 mm 0.00 in0.0 mm
09:20 PM 43.6°F6.4°C 42.0°F5.6°C 94% Calm Calm -- 29.85 in1010.8 mb - 0.00 in0.0 mm 0.00 in0.0 mm
09:30 PM 43.2°F6.2°C 41.6°F5.3°C 94% Calm Calm -- 29.86 in1011.2 mb - 0.00 in0.0 mm 0.00 in0.0 mm
09:40 PM 42.7°F5.9°C 41.1°F5.1°C 94% Calm Calm -- 29.86 in1011.2 mb - 0.00 in0.0 mm 0.00 in0.0 mm
09:50 PM 42.2°F5.7°C 40.6°F4.8°C 94% Calm Calm -- 29.86 in1011.2 mb - 0.00 in0.0 mm 0.00 in0.0 mm
10:00 PM 42.0°F5.6°C 40.4°F4.7°C 94% Calm Calm -- 29.86 in1011.2 mb - 0.00 in0.0 mm 0.00 in0.0 mm
10:10 PM 41.6°F5.3°C 40.0°F4.4°C 94% Calm Calm -- 29.85 in1010.8 mb - 0.00 in0.0 mm 0.00 in0.0 mm
10:20 PM 41.8°F5.4°C 40.5°F4.7°C 95% Calm Calm -- 29.85 in1010.8 mb - 0.00 in0.0 mm 0.00 in0.0 mm
10:30 PM 41.8°F5.4°C 40.5°F4.7°C 95% Calm Calm 1.2 mph1.9 kmh 29.85 in1010.8 mb - 0.00 in0.0 mm 0.00 in0.0 mm
10:40 PM 42.1°F5.6°C 41.0°F5.0°C 96% Calm Calm 1.2 mph1.9 kmh 29.84 in1010.5 mb - 0.00 in0.0 mm 0.00 in0.0 mm
10:50 PM 42.5°F5.8°C 41.2°F5.1°C 95% 1.2 mph N1.9 kmh N 2.3 mph3.7 kmh 29.84 in1010.5 mb - 0.00 in0.0 mm 0.00 in0.0 mm
11:00 PM 42.7°F5.9°C 41.1°F5.1°C 94% Calm Calm -- 29.84 in1010.5 mb - 0.00 in0.0 mm 0.00 in0.0 mm
11:10 PM 42.4°F5.8°C 40.8°F4.9°C 94% 1.2 mph N1.9 kmh N 2.3 mph3.7 kmh 29.83 in1010.2 mb - 0.00 in0.0 mm 0.00 in0.0 mm
11:20 PM 42.3°F5.7°C 40.4°F4.7°C 93% 1.2 mph NNW1.9 kmh NNW 2.3 mph3.7 kmh 29.83 in1010.2 mb - 0.00 in0.0 mm 0.00 in0.0 mm
11:30 PM 42.5°F5.8°C 40.6°F4.8°C 93% 2.3 mph NNE3.7 kmh NNE 3.5 mph5.6 kmh 29.83 in1010.2 mb - 0.00 in0.0 mm 0.00 in0.0 mm
11:40 PM 42.7°F5.9°C 40.5°F4.7°C 92% 1.2 mph NE1.9 kmh NE 1.2 mph1.9 kmh 29.84 in1010.5 mb - 0.00 in0.0 mm 0.00 in0.0 mm
11:50 PM 42.5°F5.8°C 40.1°F4.5°C 91% 1.2 mph N1.9 kmh N 2.3 mph3.7 kmh 29.84 in1010.5 mb - 0.00 in0.0 mm 0.00 in0.0 mm